sensor_id;sensor_type;location;lat;lon;timestamp;P1;durP1;ratioP1;P2;durP2;ratioP2
3193;SDS011;1608;50.860;13.466;2023-03-05T00:01:04;6.37;;;3.40;;
3193;SDS011;1608;50.860;13.466;2023-03-05T00:03:32;11.60;;;4.67;;
3193;SDS011;1608;50.860;13.466;2023-03-05T00:05:59;13.20;;;3.57;;
3193;SDS011;1608;50.860;13.466;2023-03-05T00:08:25;7.57;;;3.60;;
3193;SDS011;1608;50.860;13.466;2023-03-05T00:10:56;9.90;;;4.03;;
3193;SDS011;1608;50.860;13.466;2023-03-05T00:13:23;18.60;;;5.03;;
3193;SDS011;1608;50.860;13.466;2023-03-05T00:15:50;12.00;;;4.00;;
3193;SDS011;1608;50.860;13.466;2023-03-05T00:18:18;12.70;;;5.60;;
3193;SDS011;1608;50.860;13.466;2023-03-05T00:20:45;14.07;;;4.67;;
3193;SDS011;1608;50.860;13.466;2023-03-05T00:23:13;8.47;;;3.57;;
3193;SDS011;1608;50.860;13.466;2023-03-05T00:25:40;9.87;;;4.27;;
3193;SDS011;1608;50.860;13.466;2023-03-05T00:28:07;5.00;;;2.73;;
3193;SDS011;1608;50.860;13.466;2023-03-05T00:30:34;10.93;;;3.73;;
3193;SDS011;1608;50.860;13.466;2023-03-05T00:33:01;9.33;;;3.90;;
3193;SDS011;1608;50.860;13.466;2023-03-05T00:35:29;12.57;;;4.50;;
3193;SDS011;1608;50.860;13.466;2023-03-05T00:37:55;8.23;;;4.40;;
3193;SDS011;1608;50.860;13.466;2023-03-05T00:40:22;8.17;;;3.77;;
3193;SDS011;1608;50.860;13.466;2023-03-05T00:42:49;16.83;;;4.07;;
3193;SDS011;1608;50.860;13.466;2023-03-05T00:45:16;7.87;;;3.60;;
3193;SDS011;1608;50.860;13.466;2023-03-05T00:47:43;10.63;;;2.97;;
3193;SDS011;1608;50.860;13.466;2023-03-05T00:50:10;12.37;;;4.53;;
3193;SDS011;1608;50.860;13.466;2023-03-05T00:52:38;14.27;;;3.70;;
3193;SDS011;1608;50.860;13.466;2023-03-05T00:55:05;4.57;;;3.37;;
3193;SDS011;1608;50.860;13.466;2023-03-05T00:57:33;9.83;;;3.40;;
3193;SDS011;1608;50.860;13.466;2023-03-05T00:59:59;9.13;;;3.33;;
3193;SDS011;1608;50.860;13.466;2023-03-05T01:02:26;6.60;;;2.43;;
3193;SDS011;1608;50.860;13.466;2023-03-05T01:04:53;5.67;;;3.23;;
3193;SDS011;1608;50.860;13.466;2023-03-05T01:07:20;9.10;;;3.43;;
3193;SDS011;1608;50.860;13.466;2023-03-05T01:09:48;8.80;;;3.33;;
3193;SDS011;1608;50.860;13.466;2023-03-05T01:12:14;5.97;;;3.00;;
3193;SDS011;1608;50.860;13.466;2023-03-05T01:14:41;11.03;;;6.13;;
3193;SDS011;1608;50.860;13.466;2023-03-05T01:17:08;7.50;;;3.93;;
3193;SDS011;1608;50.860;13.466;2023-03-05T01:19:35;6.60;;;2.73;;
3193;SDS011;1608;50.860;13.466;2023-03-05T01:22:03;8.90;;;3.20;;
3193;SDS011;1608;50.860;13.466;2023-03-05T01:24:30;7.90;;;3.90;;
3193;SDS011;1608;50.860;13.466;2023-03-05T01:26:58;8.93;;;4.00;;
3193;SDS011;1608;50.860;13.466;2023-03-05T01:29:25;6.90;;;3.10;;
3193;SDS011;1608;50.860;13.466;2023-03-05T01:31:52;12.67;;;3.83;;
3193;SDS011;1608;50.860;13.466;2023-03-05T01:34:19;5.53;;;3.07;;
3193;SDS011;1608;50.860;13.466;2023-03-05T01:36:45;7.83;;;2.90;;
3193;SDS011;1608;50.860;13.466;2023-03-05T01:39:14;8.53;;;4.90;;
3193;SDS011;1608;50.860;13.466;2023-03-05T01:41:40;11.37;;;3.63;;
3193;SDS011;1608;50.860;13.466;2023-03-05T01:44:15;7.57;;;3.93;;
3193;SDS011;1608;50.860;13.466;2023-03-05T01:46:46;14.07;;;2.87;;
3193;SDS011;1608;50.860;13.466;2023-03-05T01:49:14;12.83;;;4.70;;
3193;SDS011;1608;50.860;13.466;2023-03-05T01:51:53;5.20;;;3.87;;
3193;SDS011;1608;50.860;13.466;2023-03-05T01:54:27;7.27;;;4.10;;
3193;SDS011;1608;50.860;13.466;2023-03-05T01:56:58;9.23;;;3.60;;
3193;SDS011;1608;50.860;13.466;2023-03-05T01:59:28;12.30;;;3.70;;
3193;SDS011;1608;50.860;13.466;2023-03-05T02:01:56;7.17;;;3.50;;
3193;SDS011;1608;50.860;13.466;2023-03-05T02:04:26;5.47;;;3.70;;
3193;SDS011;1608;50.860;13.466;2023-03-05T02:06:57;6.97;;;3.50;;
3193;SDS011;1608;50.860;13.466;2023-03-05T02:09:25;26.97;;;5.13;;
3193;SDS011;1608;50.860;13.466;2023-03-05T02:11:52;19.30;;;5.03;;
3193;SDS011;1608;50.860;13.466;2023-03-05T02:14:20;11.87;;;3.67;;
3193;SDS011;1608;50.860;13.466;2023-03-05T02:16:49;8.43;;;4.10;;
3193;SDS011;1608;50.860;13.466;2023-03-05T02:19:16;13.63;;;3.67;;
3193;SDS011;1608;50.860;13.466;2023-03-05T02:21:45;10.23;;;5.30;;
3193;SDS011;1608;50.860;13.466;2023-03-05T02:24:14;8.37;;;5.23;;
3193;SDS011;1608;50.860;13.466;2023-03-05T02:26:42;8.23;;;4.17;;
3193;SDS011;1608;50.860;13.466;2023-03-05T02:29:10;8.87;;;5.67;;
3193;SDS011;1608;50.860;13.466;2023-03-05T02:31:41;8.60;;;4.43;;
3193;SDS011;1608;50.860;13.466;2023-03-05T02:34:08;8.10;;;5.57;;
3193;SDS011;1608;50.860;13.466;2023-03-05T02:36:35;15.00;;;4.97;;
3193;SDS011;1608;50.860;13.466;2023-03-05T02:39:03;10.80;;;5.60;;
3193;SDS011;1608;50.860;13.466;2023-03-05T02:41:30;8.20;;;4.00;;
3193;SDS011;1608;50.860;13.466;2023-03-05T02:43:57;11.20;;;4.93;;
3193;SDS011;1608;50.860;13.466;2023-03-05T02:46:24;11.83;;;6.00;;
3193;SDS011;1608;50.860;13.466;2023-03-05T02:48:50;16.37;;;4.10;;
3193;SDS011;1608;50.860;13.466;2023-03-05T02:51:17;10.77;;;4.30;;
3193;SDS011;1608;50.860;13.466;2023-03-05T02:53:44;6.23;;;3.57;;
3193;SDS011;1608;50.860;13.466;2023-03-05T02:56:12;3.63;;;3.00;;
3193;SDS011;1608;50.860;13.466;2023-03-05T02:58:39;3.60;;;2.37;;
3193;SDS011;1608;50.860;13.466;2023-03-05T03:01:06;4.30;;;2.47;;
3193;SDS011;1608;50.860;13.466;2023-03-05T03:03:33;8.97;;;2.70;;
3193;SDS011;1608;50.860;13.466;2023-03-05T03:06:00;3.03;;;1.67;;
3193;SDS011;1608;50.860;13.466;2023-03-05T03:08:27;2.73;;;1.17;;
3193;SDS011;1608;50.860;13.466;2023-03-05T03:10:54;2.70;;;1.73;;
3193;SDS011;1608;50.860;13.466;2023-03-05T03:13:22;4.50;;;2.00;;
3193;SDS011;1608;50.860;13.466;2023-03-05T03:15:49;5.07;;;2.17;;
3193;SDS011;1608;50.860;13.466;2023-03-05T03:18:16;7.60;;;1.60;;
3193;SDS011;1608;50.860;13.466;2023-03-05T03:20:43;3.90;;;2.20;;
3193;SDS011;1608;50.860;13.466;2023-03-05T03:23:09;2.90;;;1.60;;
3193;SDS011;1608;50.860;13.466;2023-03-05T03:25:36;4.87;;;1.33;;
3193;SDS011;1608;50.860;13.466;2023-03-05T03:28:03;2.70;;;1.70;;
3193;SDS011;1608;50.860;13.466;2023-03-05T03:30:31;4.83;;;1.77;;
3193;SDS011;1608;50.860;13.466;2023-03-05T03:32:58;5.00;;;1.50;;
3193;SDS011;1608;50.860;13.466;2023-03-05T03:35:25;2.27;;;1.30;;
3193;SDS011;1608;50.860;13.466;2023-03-05T03:37:52;3.33;;;1.10;;
3193;SDS011;1608;50.860;13.466;2023-03-05T03:40:19;1.33;;;1.17;;
3193;SDS011;1608;50.860;13.466;2023-03-05T03:42:45;2.23;;;1.30;;
3193;SDS011;1608;50.860;13.466;2023-03-05T03:45:12;3.40;;;1.03;;
3193;SDS011;1608;50.860;13.466;2023-03-05T03:47:41;3.80;;;1.60;;
3193;SDS011;1608;50.860;13.466;2023-03-05T03:50:08;3.40;;;1.13;;
3193;SDS011;1608;50.860;13.466;2023-03-05T03:52:35;3.77;;;1.27;;
3193;SDS011;1608;50.860;13.466;2023-03-05T03:55:02;3.53;;;1.33;;
3193;SDS011;1608;50.860;13.466;2023-03-05T03:57:29;4.17;;;1.80;;
3193;SDS011;1608;50.860;13.466;2023-03-05T03:59:57;4.73;;;2.47;;
3193;SDS011;1608;50.860;13.466;2023-03-05T04:02:24;5.47;;;2.50;;
3193;SDS011;1608;50.860;13.466;2023-03-05T04:04:52;5.70;;;2.40;;
3193;SDS011;1608;50.860;13.466;2023-03-05T04:07:19;4.77;;;3.53;;
3193;SDS011;1608;50.860;13.466;2023-03-05T04:09:47;7.80;;;2.40;;
3193;SDS011;1608;50.860;13.466;2023-03-05T04:12:14;7.33;;;2.10;;
3193;SDS011;1608;50.860;13.466;2023-03-05T04:14:42;2.43;;;2.10;;
3193;SDS011;1608;50.860;13.466;2023-03-05T04:17:10;4.70;;;2.70;;
3193;SDS011;1608;50.860;13.466;2023-03-05T04:19:37;7.87;;;3.60;;
3193;SDS011;1608;50.860;13.466;2023-03-05T04:22:06;8.63;;;2.50;;
3193;SDS011;1608;50.860;13.466;2023-03-05T04:24:35;11.00;;;3.17;;
3193;SDS011;1608;50.860;13.466;2023-03-05T04:27:02;9.57;;;2.50;;
3193;SDS011;1608;50.860;13.466;2023-03-05T04:29:29;4.97;;;2.13;;
3193;SDS011;1608;50.860;13.466;2023-03-05T04:31:56;5.03;;;2.73;;
3193;SDS011;1608;50.860;13.466;2023-03-05T04:34:22;3.50;;;2.37;;
3193;SDS011;1608;50.860;13.466;2023-03-05T04:36:49;5.67;;;2.30;;
3193;SDS011;1608;50.860;13.466;2023-03-05T04:39:17;5.33;;;2.53;;
3193;SDS011;1608;50.860;13.466;2023-03-05T04:41:45;5.67;;;2.50;;
3193;SDS011;1608;50.860;13.466;2023-03-05T04:44:12;6.30;;;2.67;;
3193;SDS011;1608;50.860;13.466;2023-03-05T04:46:38;2.50;;;2.07;;
3193;SDS011;1608;50.860;13.466;2023-03-05T04:49:05;4.97;;;2.00;;
3193;SDS011;1608;50.860;13.466;2023-03-05T04:51:32;5.00;;;2.53;;
3193;SDS011;1608;50.860;13.466;2023-03-05T04:53:59;6.43;;;3.00;;
3193;SDS011;1608;50.860;13.466;2023-03-05T04:56:27;5.80;;;3.40;;
3193;SDS011;1608;50.860;13.466;2023-03-05T04:58:54;4.97;;;2.60;;
3193;SDS011;1608;50.860;13.466;2023-03-05T05:01:20;5.23;;;2.20;;
3193;SDS011;1608;50.860;13.466;2023-03-05T05:03:47;3.10;;;2.27;;
3193;SDS011;1608;50.860;13.466;2023-03-05T05:06:14;6.40;;;2.93;;
3193;SDS011;1608;50.860;13.466;2023-03-05T05:08:41;4.90;;;3.00;;
3193;SDS011;1608;50.860;13.466;2023-03-05T05:11:10;7.37;;;3.10;;
3193;SDS011;1608;50.860;13.466;2023-03-05T05:13:40;6.60;;;3.47;;
3193;SDS011;1608;50.860;13.466;2023-03-05T05:16:07;8.80;;;3.10;;
3193;SDS011;1608;50.860;13.466;2023-03-05T05:18:34;7.67;;;3.67;;
3193;SDS011;1608;50.860;13.466;2023-03-05T05:21:05;9.50;;;2.77;;
3193;SDS011;1608;50.860;13.466;2023-03-05T05:23:32;7.80;;;3.73;;
3193;SDS011;1608;50.860;13.466;2023-03-05T05:26:00;9.93;;;3.33;;
3193;SDS011;1608;50.860;13.466;2023-03-05T05:28:28;7.70;;;3.00;;
3193;SDS011;1608;50.860;13.466;2023-03-05T05:30:56;7.73;;;3.23;;
3193;SDS011;1608;50.860;13.466;2023-03-05T05:33:24;4.83;;;3.70;;
3193;SDS011;1608;50.860;13.466;2023-03-05T05:35:51;8.60;;;4.57;;
3193;SDS011;1608;50.860;13.466;2023-03-05T05:38:18;5.67;;;3.53;;
3193;SDS011;1608;50.860;13.466;2023-03-05T05:40:45;12.43;;;3.87;;
3193;SDS011;1608;50.860;13.466;2023-03-05T05:43:11;6.70;;;3.33;;
3193;SDS011;1608;50.860;13.466;2023-03-05T05:45:38;7.23;;;3.40;;
3193;SDS011;1608;50.860;13.466;2023-03-05T05:48:07;10.60;;;2.40;;
3193;SDS011;1608;50.860;13.466;2023-03-05T05:50:33;5.70;;;3.40;;
3193;SDS011;1608;50.860;13.466;2023-03-05T05:53:02;3.10;;;2.23;;
3193;SDS011;1608;50.860;13.466;2023-03-05T05:55:29;7.00;;;3.57;;
3193;SDS011;1608;50.860;13.466;2023-03-05T05:57:56;5.27;;;2.60;;
3193;SDS011;1608;50.860;13.466;2023-03-05T06:00:22;6.67;;;2.60;;
3193;SDS011;1608;50.860;13.466;2023-03-05T06:02:49;7.47;;;2.40;;
3193;SDS011;1608;50.860;13.466;2023-03-05T06:05:18;6.20;;;2.57;;
3193;SDS011;1608;50.860;13.466;2023-03-05T06:07:44;3.33;;;1.70;;
3193;SDS011;1608;50.860;13.466;2023-03-05T06:10:11;8.80;;;2.33;;
3193;SDS011;1608;50.860;13.466;2023-03-05T06:12:38;2.53;;;1.70;;
3193;SDS011;1608;50.860;13.466;2023-03-05T06:15:05;1.70;;;1.13;;
3193;SDS011;1608;50.860;13.466;2023-03-05T06:17:33;4.73;;;1.93;;
3193;SDS011;1608;50.860;13.466;2023-03-05T06:20:00;2.03;;;1.30;;
3193;SDS011;1608;50.860;13.466;2023-03-05T06:22:29;3.93;;;1.33;;
3193;SDS011;1608;50.860;13.466;2023-03-05T06:24:56;4.30;;;1.70;;
3193;SDS011;1608;50.860;13.466;2023-03-05T06:27:23;2.30;;;1.43;;
3193;SDS011;1608;50.860;13.466;2023-03-05T06:29:51;1.00;;;0.90;;
3193;SDS011;1608;50.860;13.466;2023-03-05T06:32:18;2.40;;;1.20;;
3193;SDS011;1608;50.860;13.466;2023-03-05T06:34:45;5.50;;;1.10;;
3193;SDS011;1608;50.860;13.466;2023-03-05T06:37:12;2.80;;;1.00;;
3193;SDS011;1608;50.860;13.466;2023-03-05T06:39:40;1.20;;;1.00;;
3193;SDS011;1608;50.860;13.466;2023-03-05T06:42:07;2.00;;;1.37;;
3193;SDS011;1608;50.860;13.466;2023-03-05T06:44:36;1.77;;;1.40;;
3193;SDS011;1608;50.860;13.466;2023-03-05T06:47:03;3.33;;;1.30;;
3193;SDS011;1608;50.860;13.466;2023-03-05T06:49:30;1.43;;;0.90;;
3193;SDS011;1608;50.860;13.466;2023-03-05T06:51:57;2.60;;;1.30;;
3193;SDS011;1608;50.860;13.466;2023-03-05T06:54:25;2.37;;;2.17;;
3193;SDS011;1608;50.860;13.466;2023-03-05T06:56:53;1.97;;;1.00;;
3193;SDS011;1608;50.860;13.466;2023-03-05T06:59:20;5.10;;;1.13;;
3193;SDS011;1608;50.860;13.466;2023-03-05T07:01:47;1.97;;;1.13;;
3193;SDS011;1608;50.860;13.466;2023-03-05T07:04:15;2.33;;;1.37;;
3193;SDS011;1608;50.860;13.466;2023-03-05T07:06:42;5.70;;;1.07;;
3193;SDS011;1608;50.860;13.466;2023-03-05T07:09:10;1.47;;;0.87;;
3193;SDS011;1608;50.860;13.466;2023-03-05T07:11:38;1.27;;;1.00;;
3193;SDS011;1608;50.860;13.466;2023-03-05T07:14:07;2.00;;;1.43;;
3193;SDS011;1608;50.860;13.466;2023-03-05T07:16:34;2.30;;;0.80;;
3193;SDS011;1608;50.860;13.466;2023-03-05T07:19:01;1.70;;;1.30;;
3193;SDS011;1608;50.860;13.466;2023-03-05T07:21:30;2.80;;;1.73;;
3193;SDS011;1608;50.860;13.466;2023-03-05T07:23:59;2.50;;;0.90;;
3193;SDS011;1608;50.860;13.466;2023-03-05T07:26:27;2.63;;;1.07;;
3193;SDS011;1608;50.860;13.466;2023-03-05T07:28:55;1.93;;;1.13;;
3193;SDS011;1608;50.860;13.466;2023-03-05T07:31:24;1.30;;;1.00;;
3193;SDS011;1608;50.860;13.466;2023-03-05T07:33:55;1.40;;;0.93;;
3193;SDS011;1608;50.860;13.466;2023-03-05T07:36:23;2.00;;;1.20;;
3193;SDS011;1608;50.860;13.466;2023-03-05T07:38:50;2.40;;;1.17;;
3193;SDS011;1608;50.860;13.466;2023-03-05T07:41:17;1.80;;;1.20;;
3193;SDS011;1608;50.860;13.466;2023-03-05T07:43:45;1.40;;;1.30;;
3193;SDS011;1608;50.860;13.466;2023-03-05T07:46:14;3.43;;;1.63;;
3193;SDS011;1608;50.860;13.466;2023-03-05T07:48:44;2.33;;;1.33;;
3193;SDS011;1608;50.860;13.466;2023-03-05T07:51:12;1.60;;;1.23;;
3193;SDS011;1608;50.860;13.466;2023-03-05T07:53:40;3.47;;;1.60;;
3193;SDS011;1608;50.860;13.466;2023-03-05T07:56:07;2.20;;;1.33;;
3193;SDS011;1608;50.860;13.466;2023-03-05T07:58:34;1.20;;;1.10;;
3193;SDS011;1608;50.860;13.466;2023-03-05T08:01:01;4.00;;;1.27;;
3193;SDS011;1608;50.860;13.466;2023-03-05T08:03:29;2.00;;;1.80;;
3193;SDS011;1608;50.860;13.466;2023-03-05T08:05:57;3.00;;;2.33;;
3193;SDS011;1608;50.860;13.466;2023-03-05T08:08:24;2.83;;;2.13;;
3193;SDS011;1608;50.860;13.466;2023-03-05T08:10:51;4.53;;;1.77;;
3193;SDS011;1608;50.860;13.466;2023-03-05T08:13:17;4.10;;;1.50;;
3193;SDS011;1608;50.860;13.466;2023-03-05T08:15:44;2.17;;;1.30;;
3193;SDS011;1608;50.860;13.466;2023-03-05T08:18:11;3.70;;;2.10;;
3193;SDS011;1608;50.860;13.466;2023-03-05T08:20:39;1.90;;;1.60;;
3193;SDS011;1608;50.860;13.466;2023-03-05T08:23:07;2.00;;;1.80;;
3193;SDS011;1608;50.860;13.466;2023-03-05T08:25:34;2.50;;;1.57;;
3193;SDS011;1608;50.860;13.466;2023-03-05T08:28:02;2.33;;;1.63;;
3193;SDS011;1608;50.860;13.466;2023-03-05T08:30:29;1.90;;;1.70;;
3193;SDS011;1608;50.860;13.466;2023-03-05T08:32:56;2.43;;;1.77;;
3193;SDS011;1608;50.860;13.466;2023-03-05T08:35:23;2.00;;;1.57;;
3193;SDS011;1608;50.860;13.466;2023-03-05T08:37:50;2.30;;;1.63;;
3193;SDS011;1608;50.860;13.466;2023-03-05T08:40:18;1.90;;;1.30;;
3193;SDS011;1608;50.860;13.466;2023-03-05T08:42:45;2.37;;;1.87;;
3193;SDS011;1608;50.860;13.466;2023-03-05T08:45:12;5.57;;;2.23;;
3193;SDS011;1608;50.860;13.466;2023-03-05T08:47:39;4.70;;;1.87;;
3193;SDS011;1608;50.860;13.466;2023-03-05T08:50:06;3.40;;;2.13;;
3193;SDS011;1608;50.860;13.466;2023-03-05T08:52:33;2.50;;;1.57;;
3193;SDS011;1608;50.860;13.466;2023-03-05T08:55:00;3.13;;;2.10;;
3193;SDS011;1608;50.860;13.466;2023-03-05T08:57:28;3.37;;;2.70;;
3193;SDS011;1608;50.860;13.466;2023-03-05T08:59:55;3.73;;;2.93;;
3193;SDS011;1608;50.860;13.466;2023-03-05T09:02:22;3.80;;;2.90;;
3193;SDS011;1608;50.860;13.466;2023-03-05T09:04:49;3.97;;;3.20;;
3193;SDS011;1608;50.860;13.466;2023-03-05T09:07:15;3.20;;;2.50;;
3193;SDS011;1608;50.860;13.466;2023-03-05T09:09:42;2.73;;;2.33;;
3193;SDS011;1608;50.860;13.466;2023-03-05T09:12:09;3.63;;;2.20;;
3193;SDS011;1608;50.860;13.466;2023-03-05T09:14:38;2.30;;;1.73;;
3193;SDS011;1608;50.860;13.466;2023-03-05T09:17:06;4.87;;;2.17;;
3193;SDS011;1608;50.860;13.466;2023-03-05T09:19:33;5.87;;;3.13;;
3193;SDS011;1608;50.860;13.466;2023-03-05T09:22:00;3.80;;;2.50;;
3193;SDS011;1608;50.860;13.466;2023-03-05T09:24:27;3.50;;;2.33;;
3193;SDS011;1608;50.860;13.466;2023-03-05T09:26:56;5.00;;;1.93;;
3193;SDS011;1608;50.860;13.466;2023-03-05T09:29:24;3.13;;;2.03;;
3193;SDS011;1608;50.860;13.466;2023-03-05T09:31:52;4.00;;;2.30;;
3193;SDS011;1608;50.860;13.466;2023-03-05T09:34:19;2.47;;;1.33;;
3193;SDS011;1608;50.860;13.466;2023-03-05T09:36:46;2.47;;;1.47;;
3193;SDS011;1608;50.860;13.466;2023-03-05T09:39:13;1.57;;;1.20;;
3193;SDS011;1608;50.860;13.466;2023-03-05T09:41:54;2.47;;;1.50;;
3193;SDS011;1608;50.860;13.466;2023-03-05T09:44:46;1.50;;;1.40;;
3193;SDS011;1608;50.860;13.466;2023-03-05T09:47:28;2.90;;;1.97;;
3193;SDS011;1608;50.860;13.466;2023-03-05T09:50:11;9.93;;;2.03;;
3193;SDS011;1608;50.860;13.466;2023-03-05T09:52:56;4.50;;;2.47;;
3193;SDS011;1608;50.860;13.466;2023-03-05T09:55:31;3.47;;;2.27;;
3193;SDS011;1608;50.860;13.466;2023-03-05T09:58:05;3.07;;;2.00;;
3193;SDS011;1608;50.860;13.466;2023-03-05T10:00:37;2.57;;;2.00;;
3193;SDS011;1608;50.860;13.466;2023-03-05T10:03:11;4.87;;;2.70;;
3193;SDS011;1608;50.860;13.466;2023-03-05T10:05:45;3.77;;;2.10;;
3193;SDS011;1608;50.860;13.466;2023-03-05T10:08:28;2.40;;;1.87;;
3193;SDS011;1608;50.860;13.466;2023-03-05T10:11:04;2.83;;;2.20;;
3193;SDS011;1608;50.860;13.466;2023-03-05T10:13:37;2.50;;;2.23;;
3193;SDS011;1608;50.860;13.466;2023-03-05T10:16:12;3.50;;;2.17;;
3193;SDS011;1608;50.860;13.466;2023-03-05T10:19:09;4.20;;;2.10;;
3193;SDS011;1608;50.860;13.466;2023-03-05T10:21:43;2.30;;;2.07;;
3193;SDS011;1608;50.860;13.466;2023-03-05T10:24:14;2.43;;;2.23;;
3193;SDS011;1608;50.860;13.466;2023-03-05T10:26:48;4.00;;;2.30;;
3193;SDS011;1608;50.860;13.466;2023-03-05T10:29:26;5.60;;;2.50;;
3193;SDS011;1608;50.860;13.466;2023-03-05T10:32:19;3.43;;;2.80;;
3193;SDS011;1608;50.860;13.466;2023-03-05T10:35:00;6.40;;;3.73;;
3193;SDS011;1608;50.860;13.466;2023-03-05T10:37:41;3.03;;;2.73;;
3193;SDS011;1608;50.860;13.466;2023-03-05T10:40:22;5.57;;;2.73;;
3193;SDS011;1608;50.860;13.466;2023-03-05T10:42:55;6.23;;;3.50;;
3193;SDS011;1608;50.860;13.466;2023-03-05T10:45:28;5.30;;;3.07;;
3193;SDS011;1608;50.860;13.466;2023-03-05T10:48:01;4.47;;;3.60;;
3193;SDS011;1608;50.860;13.466;2023-03-05T10:50:36;8.17;;;3.20;;
3193;SDS011;1608;50.860;13.466;2023-03-05T10:53:13;3.80;;;2.93;;
3193;SDS011;1608;50.860;13.466;2023-03-05T10:55:43;4.67;;;3.23;;
3193;SDS011;1608;50.860;13.466;2023-03-05T10:58:11;2.50;;;2.30;;
3193;SDS011;1608;50.860;13.466;2023-03-05T11:00:40;5.70;;;4.10;;
3193;SDS011;1608;50.860;13.466;2023-03-05T11:03:23;2.80;;;2.57;;
3193;SDS011;1608;50.860;13.466;2023-03-05T11:05:57;3.30;;;2.40;;
3193;SDS011;1608;50.860;13.466;2023-03-05T11:08:29;4.87;;;2.97;;
3193;SDS011;1608;50.860;13.466;2023-03-05T11:11:04;4.27;;;2.90;;
3193;SDS011;1608;50.860;13.466;2023-03-05T11:13:43;6.63;;;2.37;;
3193;SDS011;1608;50.860;13.466;2023-03-05T11:16:19;2.70;;;2.50;;
3193;SDS011;1608;50.860;13.466;2023-03-05T11:18:47;3.97;;;1.93;;
3193;SDS011;1608;50.860;13.466;2023-03-05T11:21:20;6.97;;;2.30;;
3193;SDS011;1608;50.860;13.466;2023-03-05T11:24:04;2.70;;;2.50;;
3193;SDS011;1608;50.860;13.466;2023-03-05T11:26:35;7.17;;;2.50;;
3193;SDS011;1608;50.860;13.466;2023-03-05T11:29:02;4.17;;;2.07;;
3193;SDS011;1608;50.860;13.466;2023-03-05T11:31:34;6.23;;;2.07;;
3193;SDS011;1608;50.860;13.466;2023-03-05T11:34:02;2.60;;;2.07;;
3193;SDS011;1608;50.860;13.466;2023-03-05T11:36:32;3.00;;;2.40;;
3193;SDS011;1608;50.860;13.466;2023-03-05T11:39:07;2.37;;;2.10;;
3193;SDS011;1608;50.860;13.466;2023-03-05T11:41:37;3.67;;;2.23;;
3193;SDS011;1608;50.860;13.466;2023-03-05T11:44:09;2.87;;;2.43;;
3193;SDS011;1608;50.860;13.466;2023-03-05T11:46:40;3.47;;;1.90;;
3193;SDS011;1608;50.860;13.466;2023-03-05T11:49:10;5.07;;;1.80;;
3193;SDS011;1608;50.860;13.466;2023-03-05T11:51:43;2.70;;;1.90;;
3193;SDS011;1608;50.860;13.466;2023-03-05T11:54:18;2.03;;;1.83;;
3193;SDS011;1608;50.860;13.466;2023-03-05T11:56:49;3.20;;;2.07;;
3193;SDS011;1608;50.860;13.466;2023-03-05T11:59:18;3.50;;;1.87;;
3193;SDS011;1608;50.860;13.466;2023-03-05T12:01:49;11.53;;;2.23;;
3193;SDS011;1608;50.860;13.466;2023-03-05T12:04:18;3.33;;;2.40;;
3193;SDS011;1608;50.860;13.466;2023-03-05T12:06:48;3.40;;;2.40;;
3193;SDS011;1608;50.860;13.466;2023-03-05T12:09:20;3.20;;;2.00;;
3193;SDS011;1608;50.860;13.466;2023-03-05T12:11:52;8.20;;;2.40;;
3193;SDS011;1608;50.860;13.466;2023-03-05T12:14:27;5.47;;;2.23;;
3193;SDS011;1608;50.860;13.466;2023-03-05T12:17:03;2.70;;;1.83;;
3193;SDS011;1608;50.860;13.466;2023-03-05T12:19:39;3.30;;;2.30;;
3193;SDS011;1608;50.860;13.466;2023-03-05T12:22:18;2.40;;;2.00;;
3193;SDS011;1608;50.860;13.466;2023-03-05T12:24:47;2.47;;;1.80;;
3193;SDS011;1608;50.860;13.466;2023-03-05T12:27:15;3.07;;;1.73;;
3193;SDS011;1608;50.860;13.466;2023-03-05T12:29:57;5.00;;;1.97;;
3193;SDS011;1608;50.860;13.466;2023-03-05T12:35:27;4.50;;;2.90;;
3193;SDS011;1608;50.860;13.466;2023-03-05T12:37:58;4.93;;;3.40;;
3193;SDS011;1608;50.860;13.466;2023-03-05T12:40:27;7.27;;;2.80;;
3193;SDS011;1608;50.860;13.466;2023-03-05T12:42:56;4.67;;;2.60;;
3193;SDS011;1608;50.860;13.466;2023-03-05T12:45:25;3.23;;;2.43;;
3193;SDS011;1608;50.860;13.466;2023-03-05T12:50:58;4.30;;;2.50;;
3193;SDS011;1608;50.860;13.466;2023-03-05T12:53:26;4.40;;;3.70;;
3193;SDS011;1608;50.860;13.466;2023-03-05T12:55:55;3.30;;;2.20;;
3193;SDS011;1608;50.860;13.466;2023-03-05T12:58:32;2.57;;;1.90;;
3193;SDS011;1608;50.860;13.466;2023-03-05T13:01:05;3.53;;;3.07;;
3193;SDS011;1608;50.860;13.466;2023-03-05T13:03:42;4.20;;;2.87;;
3193;SDS011;1608;50.860;13.466;2023-03-05T13:06:23;2.33;;;2.13;;
3193;SDS011;1608;50.860;13.466;2023-03-05T13:08:56;3.23;;;2.50;;
3193;SDS011;1608;50.860;13.466;2023-03-05T13:11:25;6.03;;;2.73;;
3193;SDS011;1608;50.860;13.466;2023-03-05T13:13:54;3.13;;;2.37;;
3193;SDS011;1608;50.860;13.466;2023-03-05T13:16:23;2.17;;;1.90;;
3193;SDS011;1608;50.860;13.466;2023-03-05T13:18:51;3.80;;;2.43;;
3193;SDS011;1608;50.860;13.466;2023-03-05T13:21:19;5.37;;;3.10;;
3193;SDS011;1608;50.860;13.466;2023-03-05T13:23:51;2.60;;;1.97;;
3193;SDS011;1608;50.860;13.466;2023-03-05T13:26:23;3.93;;;2.70;;
3193;SDS011;1608;50.860;13.466;2023-03-05T13:29:08;4.63;;;2.23;;
3193;SDS011;1608;50.860;13.466;2023-03-05T13:31:39;3.77;;;2.27;;
3193;SDS011;1608;50.860;13.466;2023-03-05T13:34:10;2.50;;;2.13;;
3193;SDS011;1608;50.860;13.466;2023-03-05T13:36:44;3.33;;;2.27;;
3193;SDS011;1608;50.860;13.466;2023-03-05T13:39:21;4.83;;;2.60;;
3193;SDS011;1608;50.860;13.466;2023-03-05T13:41:56;3.40;;;2.30;;
3193;SDS011;1608;50.860;13.466;2023-03-05T13:44:25;5.23;;;2.50;;
3193;SDS011;1608;50.860;13.466;2023-03-05T13:47:04;2.90;;;2.00;;
3193;SDS011;1608;50.860;13.466;2023-03-05T13:49:32;3.03;;;1.90;;
3193;SDS011;1608;50.860;13.466;2023-03-05T13:51:59;3.03;;;1.80;;
3193;SDS011;1608;50.860;13.466;2023-03-05T13:54:28;3.97;;;2.00;;
3193;SDS011;1608;50.860;13.466;2023-03-05T13:56:57;3.63;;;1.80;;
3193;SDS011;1608;50.860;13.466;2023-03-05T13:59:25;3.83;;;3.27;;
3193;SDS011;1608;50.860;13.466;2023-03-05T14:01:55;6.90;;;2.67;;
3193;SDS011;1608;50.860;13.466;2023-03-05T14:04:22;2.63;;;1.80;;
3193;SDS011;1608;50.860;13.466;2023-03-05T14:06:52;5.60;;;2.00;;
3193;SDS011;1608;50.860;13.466;2023-03-05T14:09:23;3.60;;;2.60;;
3193;SDS011;1608;50.860;13.466;2023-03-05T14:11:52;4.00;;;2.57;;
3193;SDS011;1608;50.860;13.466;2023-03-05T14:14:22;3.60;;;1.90;;
3193;SDS011;1608;50.860;13.466;2023-03-05T14:16:51;3.83;;;2.80;;
3193;SDS011;1608;50.860;13.466;2023-03-05T14:19:31;6.93;;;2.40;;
3193;SDS011;1608;50.860;13.466;2023-03-05T14:22:01;3.77;;;3.00;;
3193;SDS011;1608;50.860;13.466;2023-03-05T14:24:29;3.13;;;2.37;;
3193;SDS011;1608;50.860;13.466;2023-03-05T14:26:56;2.70;;;2.23;;
3193;SDS011;1608;50.860;13.466;2023-03-05T14:29:26;5.23;;;4.80;;
3193;SDS011;1608;50.860;13.466;2023-03-05T14:31:55;16.77;;;10.50;;
3193;SDS011;1608;50.860;13.466;2023-03-05T14:34:24;18.60;;;13.30;;
3193;SDS011;1608;50.860;13.466;2023-03-05T14:36:56;4.47;;;4.03;;
3193;SDS011;1608;50.860;13.466;2023-03-05T14:39:26;3.10;;;2.50;;
3193;SDS011;1608;50.860;13.466;2023-03-05T14:41:54;3.70;;;3.40;;
3193;SDS011;1608;50.860;13.466;2023-03-05T14:44:38;4.20;;;3.80;;
3193;SDS011;1608;50.860;13.466;2023-03-05T14:47:05;2.60;;;2.40;;
3193;SDS011;1608;50.860;13.466;2023-03-05T14:49:32;2.23;;;2.00;;
3193;SDS011;1608;50.860;13.466;2023-03-05T14:51:59;3.07;;;2.60;;
3193;SDS011;1608;50.860;13.466;2023-03-05T14:54:25;2.87;;;2.00;;
3193;SDS011;1608;50.860;13.466;2023-03-05T14:57:02;2.97;;;1.83;;
3193;SDS011;1608;50.860;13.466;2023-03-05T14:59:30;6.67;;;2.40;;
3193;SDS011;1608;50.860;13.466;2023-03-05T15:01:58;2.90;;;2.07;;
3193;SDS011;1608;50.860;13.466;2023-03-05T15:04:25;2.90;;;1.63;;
3193;SDS011;1608;50.860;13.466;2023-03-05T15:06:52;2.33;;;2.10;;
3193;SDS011;1608;50.860;13.466;2023-03-05T15:09:18;3.13;;;2.60;;
3193;SDS011;1608;50.860;13.466;2023-03-05T15:11:46;3.50;;;2.27;;
3193;SDS011;1608;50.860;13.466;2023-03-05T15:14:13;4.27;;;3.17;;
3193;SDS011;1608;50.860;13.466;2023-03-05T15:16:41;3.27;;;1.83;;
3193;SDS011;1608;50.860;13.466;2023-03-05T15:19:11;3.73;;;2.57;;